TVS1404 LKTB-LGIR
Flight info
| Callsign | TVS1404 |
|---|---|
| Flight time | 2h 20m |
| Altitude | 35000 |
| Route | ODNEM A4 BERVA DCT XOMBA DCT KEROP DCT RAXAD DCT MAKED UL617 KEA UL607 GIVIS UT514 XAVIS |
| Aircraft | B738/M-SDE2E3FGHIRWXY/LB1 |
Departure
| Time | 2026-05-07 17:59 |
|---|---|
| Airport | Brno-Tuřany Airport (LKTB) |
Arrival
| Time | 2026-05-07 20:19 |
|---|---|
| Airport | Heraklion International Nikos Kazantzakis Airport (LGIR) |
| Time | Latitude | Longitude | Altitude | Speed | Heading |
|---|---|---|---|---|---|
| 2026-05-07 17:43 | 49.15393 | 16.69012 | 787 ft | 0 kts | 6° |
| 2026-05-07 17:52 | 49.15391 | 16.69012 | 787 ft | 1 kts | 7° |
| 2026-05-07 17:52 | 49.15376 | 16.69014 | 786 ft | 2 kts | 338° |
| 2026-05-07 17:52 | 49.15362 | 16.69026 | 786 ft | 2 kts | 317° |
| 2026-05-07 17:52 | 49.15353 | 16.69044 | 786 ft | 2 kts | 295° |
| 2026-05-07 17:53 | 49.15350 | 16.69064 | 786 ft | 1 kts | 274° |
| 2026-05-07 17:53 | 49.15350 | 16.69068 | 786 ft | 0 kts | 273° |
| 2026-05-07 17:54 | 49.15350 | 16.69066 | 786 ft | 0 kts | 275° |
| 2026-05-07 17:54 | 49.15351 | 16.69045 | 786 ft | 5 kts | 278° |
| 2026-05-07 17:55 | 49.15360 | 16.68951 | 786 ft | 12 kts | 278° |
| 2026-05-07 17:55 | 49.15375 | 16.68778 | 787 ft | 20 kts | 277° |
| 2026-05-07 17:55 | 49.15393 | 16.68553 | 786 ft | 21 kts | 277° |
| 2026-05-07 17:55 | 49.15413 | 16.68338 | 785 ft | 20 kts | 278° |
| 2026-05-07 17:56 | 49.15431 | 16.68122 | 782 ft | 20 kts | 278° |
| 2026-05-07 17:56 | 49.15451 | 16.67907 | 779 ft | 20 kts | 278° |
| 2026-05-07 17:56 | 49.15469 | 16.67697 | 776 ft | 16 kts | 272° |
| 2026-05-07 17:56 | 49.15431 | 16.67636 | 775 ft | 0 kts | 192° |
| 2026-05-07 17:57 | 49.15430 | 16.67636 | 775 ft | 0 kts | 192° |
| 2026-05-07 17:57 | 49.15360 | 16.67619 | 774 ft | 17 kts | 188° |
| 2026-05-07 17:57 | 49.15283 | 16.67673 | 775 ft | 9 kts | 103° |
| 2026-05-07 17:58 | 49.15257 | 16.67909 | 778 ft | 52 kts | 99° |
| 2026-05-07 17:58 | 49.15180 | 16.68820 | 785 ft | 119 kts | 97° |
| 2026-05-07 17:58 | 49.15046 | 16.70378 | 775 ft | 174 kts | 98° |
| 2026-05-07 17:58 | 49.14912 | 16.72287 | 1335 ft | 181 kts | 97° |
| 2026-05-07 17:59 | 49.14801 | 16.74135 | 2150 ft | 178 kts | 96° |
| 2026-05-07 17:59 | 49.14675 | 16.76059 | 2615 ft | 192 kts | 98° |
| 2026-05-07 17:59 | 49.14449 | 16.78145 | 3075 ft | 206 kts | 99° |
| 2026-05-07 17:59 | 49.14043 | 16.80315 | 3442 ft | 226 kts | 122° |
| 2026-05-07 18:00 | 49.12873 | 16.81933 | 3904 ft | 239 kts | 156° |
| 2026-05-07 18:00 | 49.11250 | 16.82824 | 4410 ft | 255 kts | 162° |
| 2026-05-07 18:00 | 49.09634 | 16.84085 | 4969 ft | 270 kts | 143° |
| 2026-05-07 18:00 | 49.08216 | 16.86007 | 5623 ft | 280 kts | 136° |
| 2026-05-07 18:01 | 49.06822 | 16.88111 | 6468 ft | 282 kts | 137° |
| 2026-05-07 18:01 | 49.05412 | 16.90149 | 7216 ft | 287 kts | 139° |
| 2026-05-07 18:01 | 49.03920 | 16.92187 | 8008 ft | 290 kts | 141° |
| 2026-05-07 18:01 | 49.02380 | 16.94231 | 8728 ft | 296 kts | 141° |
| 2026-05-07 18:02 | 48.99242 | 16.98363 | 10199 ft | 303 kts | 141° |
| 2026-05-07 18:02 | 48.97635 | 17.00490 | 10685 ft | 316 kts | 141° |
| 2026-05-07 18:02 | 48.95938 | 17.02742 | 11138 ft | 329 kts | 141° |
| 2026-05-07 18:03 | 48.94188 | 17.05065 | 11736 ft | 337 kts | 141° |
| 2026-05-07 18:03 | 48.92433 | 17.07395 | 12525 ft | 337 kts | 141° |
| 2026-05-07 18:03 | 48.90672 | 17.09727 | 13245 ft | 340 kts | 141° |
| 2026-05-07 18:03 | 48.88907 | 17.12059 | 14031 ft | 340 kts | 141° |
| 2026-05-07 18:04 | 48.87111 | 17.14427 | 14672 ft | 344 kts | 141° |
| 2026-05-07 18:04 | 48.85318 | 17.16799 | 15328 ft | 348 kts | 140° |
| 2026-05-07 18:04 | 48.83559 | 17.19351 | 15979 ft | 352 kts | 137° |
| 2026-05-07 18:04 | 48.81864 | 17.22044 | 16612 ft | 356 kts | 135° |
| 2026-05-07 18:05 | 48.80174 | 17.24817 | 17227 ft | 359 kts | 135° |
| 2026-05-07 18:05 | 48.78486 | 17.27585 | 17872 ft | 361 kts | 136° |
| 2026-05-07 18:05 | 48.76765 | 17.30371 | 18437 ft | 365 kts | 136° |
| 2026-05-07 18:05 | 48.75005 | 17.33188 | 19114 ft | 365 kts | 137° |
| 2026-05-07 18:06 | 48.73254 | 17.35968 | 19733 ft | 367 kts | 137° |
| 2026-05-07 18:06 | 48.71500 | 17.38739 | 20360 ft | 368 kts | 137° |
| 2026-05-07 18:06 | 48.69721 | 17.41544 | 20956 ft | 370 kts | 138° |
| 2026-05-07 18:06 | 48.67951 | 17.44336 | 21504 ft | 372 kts | 138° |
| 2026-05-07 18:07 | 48.66161 | 17.47159 | 22136 ft | 372 kts | 138° |
| 2026-05-07 18:07 | 48.64342 | 17.49983 | 22603 ft | 375 kts | 140° |
| 2026-05-07 18:07 | 48.62446 | 17.52601 | 23165 ft | 373 kts | 146° |
| 2026-05-07 18:07 | 48.60325 | 17.54785 | 23701 ft | 369 kts | 154° |
| 2026-05-07 18:08 | 48.58033 | 17.56531 | 24185 ft | 369 kts | 159° |
| 2026-05-07 18:08 | 48.55677 | 17.58046 | 24683 ft | 369 kts | 161° |
| 2026-05-07 18:08 | 48.53286 | 17.59486 | 25092 ft | 373 kts | 162° |
| 2026-05-07 18:08 | 48.50869 | 17.60914 | 25591 ft | 374 kts | 162° |
| 2026-05-07 18:09 | 48.48436 | 17.62357 | 26019 ft | 376 kts | 162° |
| 2026-05-07 18:09 | 48.45977 | 17.63828 | 26466 ft | 378 kts | 162° |
| 2026-05-07 18:09 | 48.43568 | 17.65285 | 26920 ft | 379 kts | 163° |
| 2026-05-07 18:09 | 48.41098 | 17.66786 | 27307 ft | 381 kts | 163° |
| 2026-05-07 18:10 | 48.38655 | 17.68271 | 27696 ft | 383 kts | 163° |
| 2026-05-07 18:10 | 48.36179 | 17.69776 | 28121 ft | 384 kts | 163° |
| 2026-05-07 18:10 | 48.33791 | 17.71226 | 28406 ft | 387 kts | 163° |
| 2026-05-07 18:10 | 48.31278 | 17.72750 | 28788 ft | 389 kts | 163° |
| 2026-05-07 18:11 | 48.28774 | 17.74267 | 29090 ft | 392 kts | 163° |
| 2026-05-07 18:11 | 48.27093 | 17.75285 | 29341 ft | 392 kts | 163° |
| 2026-05-07 18:11 | 48.23706 | 17.77340 | 29795 ft | 395 kts | 163° |
| 2026-05-07 18:11 | 48.21166 | 17.78879 | 30119 ft | 396 kts | 163° |
| 2026-05-07 18:12 | 48.18592 | 17.80440 | 30458 ft | 398 kts | 163° |
| 2026-05-07 18:12 | 48.15991 | 17.82014 | 30733 ft | 400 kts | 163° |
| 2026-05-07 18:12 | 48.13432 | 17.83560 | 30977 ft | 402 kts | 163° |
| 2026-05-07 18:12 | 48.10822 | 17.85134 | 31227 ft | 404 kts | 163° |
| 2026-05-07 18:13 | 48.08203 | 17.86708 | 31424 ft | 408 kts | 164° |
| 2026-05-07 18:13 | 48.05564 | 17.88295 | 31723 ft | 408 kts | 163° |
| 2026-05-07 18:13 | 48.02919 | 17.89883 | 31867 ft | 413 kts | 163° |
| 2026-05-07 18:13 | 48.00232 | 17.91496 | 32124 ft | 414 kts | 164° |
| 2026-05-07 18:14 | 47.97562 | 17.93098 | 32321 ft | 417 kts | 164° |
| 2026-05-07 18:14 | 47.94873 | 17.94706 | 32543 ft | 419 kts | 164° |
| 2026-05-07 18:14 | 47.92173 | 17.96323 | 32779 ft | 421 kts | 164° |
| 2026-05-07 18:14 | 47.89460 | 17.97946 | 32952 ft | 424 kts | 163° |
| 2026-05-07 18:15 | 47.86749 | 17.99564 | 33152 ft | 426 kts | 164° |
| 2026-05-07 18:15 | 47.84066 | 18.01165 | 33454 ft | 426 kts | 164° |
| 2026-05-07 18:15 | 47.81365 | 18.02779 | 33865 ft | 423 kts | 164° |
| 2026-05-07 18:15 | 47.78747 | 18.04371 | 34035 ft | 427 kts | 162° |
| 2026-05-07 18:16 | 47.75979 | 18.06333 | 34346 ft | 429 kts | 158° |
| 2026-05-07 18:16 | 47.73398 | 18.08588 | 34587 ft | 432 kts | 153° |
| 2026-05-07 18:16 | 47.70882 | 18.11087 | 34742 ft | 436 kts | 151° |
| 2026-05-07 18:16 | 47.68401 | 18.13714 | 34915 ft | 438 kts | 150° |
| 2026-05-07 18:17 | 47.65929 | 18.16404 | 34954 ft | 441 kts | 149° |
| 2026-05-07 18:17 | 47.60977 | 18.21825 | 34978 ft | 441 kts | 149° |
| 2026-05-07 18:18 | 47.56031 | 18.27194 | 34976 ft | 439 kts | 150° |
| 2026-05-07 18:18 | 47.51046 | 18.32552 | 34979 ft | 442 kts | 150° |
| 2026-05-07 18:19 | 47.46063 | 18.37866 | 34974 ft | 441 kts | 150° |
| 2026-05-07 18:19 | 47.41082 | 18.43162 | 34981 ft | 440 kts | 150° |
| 2026-05-07 18:20 | 47.36091 | 18.48452 | 34974 ft | 441 kts | 150° |
| 2026-05-07 18:20 | 47.31066 | 18.53762 | 34976 ft | 443 kts | 150° |
| 2026-05-07 18:21 | 47.26062 | 18.59045 | 34982 ft | 442 kts | 150° |
| 2026-05-07 18:21 | 47.21038 | 18.64337 | 34978 ft | 443 kts | 150° |
| 2026-05-07 18:22 | 47.16011 | 18.69620 | 34985 ft | 443 kts | 151° |
| 2026-05-07 18:22 | 47.11119 | 18.74742 | 34987 ft | 443 kts | 151° |
| 2026-05-07 18:23 | 47.06096 | 18.79992 | 34992 ft | 444 kts | 151° |
| 2026-05-07 18:23 | 47.01043 | 18.85258 | 34992 ft | 446 kts | 151° |
| 2026-05-07 18:24 | 46.95976 | 18.90525 | 34982 ft | 446 kts | 151° |
| 2026-05-07 18:24 | 46.90875 | 18.95817 | 34987 ft | 447 kts | 151° |
| 2026-05-07 18:25 | 46.85895 | 19.00971 | 34993 ft | 448 kts | 151° |
| 2026-05-07 18:25 | 46.80903 | 19.06126 | 34988 ft | 446 kts | 151° |
| 2026-05-07 18:26 | 46.75814 | 19.11373 | 34992 ft | 446 kts | 150° |
| 2026-05-07 18:26 | 46.70721 | 19.16613 | 34991 ft | 446 kts | 150° |
| 2026-05-07 18:27 | 46.65642 | 19.21818 | 34988 ft | 446 kts | 150° |
| 2026-05-07 18:27 | 46.60525 | 19.27048 | 34994 ft | 447 kts | 150° |
| 2026-05-07 18:28 | 46.55443 | 19.32237 | 34994 ft | 446 kts | 150° |
| 2026-05-07 18:28 | 46.50357 | 19.37415 | 34992 ft | 447 kts | 150° |
| 2026-05-07 18:29 | 46.45238 | 19.42616 | 34994 ft | 448 kts | 150° |
| 2026-05-07 18:29 | 46.40087 | 19.47840 | 34991 ft | 449 kts | 150° |
| 2026-05-07 18:30 | 46.34988 | 19.52996 | 34990 ft | 448 kts | 150° |
| 2026-05-07 18:30 | 46.29857 | 19.58171 | 34996 ft | 448 kts | 150° |
| 2026-05-07 18:31 | 46.24719 | 19.63343 | 34997 ft | 448 kts | 150° |
| 2026-05-07 18:31 | 46.19603 | 19.68448 | 34993 ft | 446 kts | 152° |
| 2026-05-07 18:32 | 46.14321 | 19.72855 | 34992 ft | 442 kts | 158° |
| 2026-05-07 18:32 | 46.08763 | 19.76734 | 34989 ft | 443 kts | 160° |
| 2026-05-07 18:33 | 46.03219 | 19.80513 | 34990 ft | 443 kts | 160° |
| 2026-05-07 18:33 | 45.97626 | 19.84364 | 34992 ft | 444 kts | 159° |
| 2026-05-07 18:34 | 45.92050 | 19.88236 | 34989 ft | 444 kts | 159° |
| 2026-05-07 18:34 | 45.86586 | 19.92047 | 34989 ft | 441 kts | 159° |
| 2026-05-07 18:35 | 45.81181 | 19.95814 | 34991 ft | 443 kts | 159° |
| 2026-05-07 18:35 | 45.75625 | 19.99679 | 34988 ft | 443 kts | 159° |
| 2026-05-07 18:36 | 45.70025 | 20.03565 | 35008 ft | 445 kts | 159° |
| 2026-05-07 18:36 | 45.64469 | 20.07410 | 34992 ft | 445 kts | 159° |
| 2026-05-07 18:37 | 45.58880 | 20.11278 | 34983 ft | 446 kts | 159° |
| 2026-05-07 18:37 | 45.53289 | 20.15140 | 34993 ft | 445 kts | 159° |
| 2026-05-07 18:38 | 45.47685 | 20.19003 | 34991 ft | 445 kts | 159° |
| 2026-05-07 18:38 | 45.42104 | 20.22838 | 34995 ft | 446 kts | 159° |
| 2026-05-07 18:39 | 45.36486 | 20.26687 | 34984 ft | 445 kts | 159° |
| 2026-05-07 18:39 | 45.30881 | 20.30519 | 35001 ft | 446 kts | 158° |
| 2026-05-07 18:40 | 45.25272 | 20.34347 | 34995 ft | 447 kts | 158° |
| 2026-05-07 18:40 | 45.19616 | 20.38200 | 34987 ft | 448 kts | 159° |
| 2026-05-07 18:41 | 45.13993 | 20.42022 | 34998 ft | 448 kts | 158° |
| 2026-05-07 18:41 | 45.08327 | 20.45860 | 35001 ft | 450 kts | 158° |
| 2026-05-07 18:42 | 45.02680 | 20.49678 | 34992 ft | 448 kts | 158° |
| 2026-05-07 18:42 | 44.97046 | 20.53480 | 35004 ft | 449 kts | 158° |
| 2026-05-07 18:43 | 44.91394 | 20.57285 | 35004 ft | 450 kts | 158° |
| 2026-05-07 18:43 | 44.85766 | 20.61068 | 35012 ft | 450 kts | 158° |
| 2026-05-07 18:44 | 44.80219 | 20.64790 | 35000 ft | 451 kts | 158° |
| 2026-05-07 18:44 | 44.74562 | 20.68574 | 35005 ft | 454 kts | 159° |
| 2026-05-07 18:45 | 44.68861 | 20.72379 | 35004 ft | 453 kts | 159° |
| 2026-05-07 18:45 | 44.63156 | 20.76180 | 35006 ft | 453 kts | 159° |
| 2026-05-07 18:46 | 44.57453 | 20.79971 | 35006 ft | 453 kts | 159° |
| 2026-05-07 18:46 | 44.51729 | 20.83766 | 35002 ft | 453 kts | 159° |
| 2026-05-07 18:47 | 44.45991 | 20.87557 | 35016 ft | 455 kts | 159° |
| 2026-05-07 18:47 | 44.40258 | 20.91344 | 35000 ft | 456 kts | 159° |
| 2026-05-07 18:48 | 44.34490 | 20.95150 | 35011 ft | 457 kts | 159° |
| 2026-05-07 18:48 | 44.28749 | 20.98922 | 35014 ft | 456 kts | 159° |
| 2026-05-07 18:49 | 44.24673 | 21.01595 | 35011 ft | 457 kts | 159° |
| 2026-05-07 18:49 | 44.24663 | 21.01601 | 34894 ft | 457 kts | 159° |
| 2026-05-07 18:49 | 44.22325 | 21.03124 | 34970 ft | 455 kts | 160° |
| 2026-05-07 18:50 | 44.16580 | 21.06860 | 35027 ft | 456 kts | 160° |
| 2026-05-07 18:50 | 44.10775 | 21.10657 | 35048 ft | 459 kts | 160° |
| 2026-05-07 18:51 | 44.05017 | 21.14424 | 35043 ft | 457 kts | 159° |
| 2026-05-07 18:51 | 43.99258 | 21.18173 | 35028 ft | 459 kts | 159° |
| 2026-05-07 18:52 | 43.93433 | 21.21953 | 35026 ft | 459 kts | 159° |
| 2026-05-07 18:52 | 43.87659 | 21.25696 | 35025 ft | 459 kts | 159° |
| 2026-05-07 18:53 | 43.81996 | 21.29356 | 35029 ft | 459 kts | 159° |
| 2026-05-07 18:53 | 43.76225 | 21.33077 | 35030 ft | 460 kts | 159° |
| 2026-05-07 18:54 | 43.70396 | 21.36823 | 35034 ft | 461 kts | 159° |
| 2026-05-07 18:54 | 43.64584 | 21.40554 | 35039 ft | 461 kts | 159° |
| 2026-05-07 18:55 | 43.58746 | 21.44295 | 35046 ft | 462 kts | 159° |
| 2026-05-07 18:55 | 43.52900 | 21.48033 | 35046 ft | 460 kts | 159° |
| 2026-05-07 18:56 | 43.47037 | 21.51767 | 35053 ft | 465 kts | 159° |
| 2026-05-07 18:56 | 43.41138 | 21.55520 | 35049 ft | 464 kts | 159° |
| 2026-05-07 18:57 | 43.35267 | 21.59246 | 35055 ft | 466 kts | 159° |
| 2026-05-07 18:57 | 43.29313 | 21.63019 | 35059 ft | 468 kts | 160° |
| 2026-05-07 18:58 | 43.23406 | 21.66754 | 35058 ft | 466 kts | 160° |
| 2026-05-07 18:58 | 43.17596 | 21.70422 | 35060 ft | 468 kts | 160° |
| 2026-05-07 18:59 | 43.11661 | 21.74155 | 35062 ft | 471 kts | 160° |
| 2026-05-07 18:59 | 43.05730 | 21.77879 | 35057 ft | 468 kts | 160° |
| 2026-05-07 18:59 | 43.02753 | 21.79745 | 35192 ft | 470 kts | 160° |
| 2026-05-07 19:00 | 42.99776 | 21.81607 | 35078 ft | 473 kts | 160° |
| 2026-05-07 19:00 | 42.93787 | 21.85366 | 35071 ft | 472 kts | 160° |
| 2026-05-07 19:01 | 42.87833 | 21.89084 | 35072 ft | 473 kts | 160° |
| 2026-05-07 19:01 | 42.81924 | 21.92761 | 35075 ft | 475 kts | 160° |
| 2026-05-07 19:02 | 42.75872 | 21.96521 | 35087 ft | 475 kts | 160° |
| 2026-05-07 19:02 | 42.69875 | 22.00245 | 35095 ft | 475 kts | 160° |
| 2026-05-07 19:03 | 42.63792 | 22.04007 | 35092 ft | 478 kts | 161° |
| 2026-05-07 19:03 | 42.57735 | 22.07741 | 35110 ft | 477 kts | 161° |
| 2026-05-07 19:04 | 42.51705 | 22.11453 | 35103 ft | 478 kts | 161° |
| 2026-05-07 19:04 | 42.45600 | 22.15201 | 35107 ft | 480 kts | 161° |
| 2026-05-07 19:05 | 42.39526 | 22.18930 | 35117 ft | 479 kts | 161° |
| 2026-05-07 19:05 | 42.33388 | 22.22638 | 35109 ft | 476 kts | 163° |
| 2026-05-07 19:06 | 42.27120 | 22.25394 | 35115 ft | 473 kts | 174° |
| 2026-05-07 19:06 | 42.17507 | 22.27690 | 35104 ft | 464 kts | 178° |
| 2026-05-07 19:07 | 42.11080 | 22.29066 | 35097 ft | 469 kts | 178° |
| 2026-05-07 19:07 | 42.04595 | 22.30505 | 35112 ft | 473 kts | 178° |
| 2026-05-07 19:08 | 41.98193 | 22.31969 | 35093 ft | 468 kts | 177° |
| 2026-05-07 19:08 | 41.91717 | 22.33492 | 35099 ft | 474 kts | 177° |
| 2026-05-07 19:09 | 41.85283 | 22.35029 | 35101 ft | 471 kts | 178° |
| 2026-05-07 19:09 | 41.78818 | 22.36520 | 35096 ft | 474 kts | 179° |
| 2026-05-07 19:10 | 41.72316 | 22.38010 | 35114 ft | 475 kts | 178° |
| 2026-05-07 19:10 | 41.65774 | 22.39519 | 35114 ft | 475 kts | 178° |
| 2026-05-07 19:11 | 41.59233 | 22.41034 | 35116 ft | 474 kts | 179° |
| 2026-05-07 19:11 | 41.52689 | 22.42539 | 35106 ft | 481 kts | 179° |
| 2026-05-07 19:12 | 41.46069 | 22.44066 | 35109 ft | 485 kts | 179° |
| 2026-05-07 19:12 | 41.39420 | 22.45603 | 35109 ft | 476 kts | 179° |
| 2026-05-07 19:13 | 41.32896 | 22.47099 | 35110 ft | 480 kts | 179° |
| 2026-05-07 19:13 | 41.26228 | 22.48616 | 35094 ft | 484 kts | 179° |
| 2026-05-07 19:14 | 41.19686 | 22.50124 | 35081 ft | 477 kts | 180° |
| 2026-05-07 19:14 | 41.13070 | 22.51800 | 35098 ft | 490 kts | 175° |
| 2026-05-07 19:15 | 41.06500 | 22.54630 | 35096 ft | 500 kts | 167° |
| 2026-05-07 19:15 | 40.99995 | 22.58122 | 35095 ft | 507 kts | 166° |
| 2026-05-07 19:16 | 40.93440 | 22.61728 | 35096 ft | 507 kts | 165° |
| 2026-05-07 19:16 | 40.87043 | 22.65212 | 35091 ft | 506 kts | 166° |
| 2026-05-07 19:17 | 40.80600 | 22.68633 | 35095 ft | 504 kts | 168° |
| 2026-05-07 19:17 | 40.74062 | 22.72088 | 35095 ft | 508 kts | 168° |
| 2026-05-07 19:18 | 40.67523 | 22.75499 | 35087 ft | 501 kts | 167° |
| 2026-05-07 19:18 | 40.60973 | 22.78866 | 35090 ft | 506 kts | 167° |
| 2026-05-07 19:19 | 40.54384 | 22.82242 | 35087 ft | 508 kts | 167° |
| 2026-05-07 19:19 | 40.47816 | 22.85647 | 35086 ft | 507 kts | 168° |
| 2026-05-07 19:20 | 40.41218 | 22.89015 | 35086 ft | 509 kts | 168° |
| 2026-05-07 19:20 | 40.34710 | 22.92381 | 35085 ft | 507 kts | 167° |
| 2026-05-07 19:21 | 40.28079 | 22.95817 | 35078 ft | 511 kts | 167° |
| 2026-05-07 19:21 | 40.21464 | 22.99216 | 35078 ft | 510 kts | 167° |
| 2026-05-07 19:22 | 40.14883 | 23.02567 | 35071 ft | 510 kts | 167° |
| 2026-05-07 19:22 | 40.08319 | 23.05931 | 35076 ft | 508 kts | 167° |
| 2026-05-07 19:23 | 40.02930 | 23.08687 | 35069 ft | 511 kts | 168° |
| 2026-05-07 19:23 | 39.99240 | 23.10560 | 35006 ft | 510 kts | 167° |
| 2026-05-07 19:24 | 39.97325 | 23.11527 | 35220 ft | 507 kts | 165° |
| 2026-05-07 19:24 | 39.94038 | 23.13233 | 35025 ft | 508 kts | 166° |
| 2026-05-07 19:24 | 39.90811 | 23.14910 | 35091 ft | 498 kts | 166° |
| 2026-05-07 19:25 | 39.84420 | 23.18147 | 35084 ft | 497 kts | 167° |
| 2026-05-07 19:25 | 39.77916 | 23.21392 | 35064 ft | 505 kts | 167° |
| 2026-05-07 19:26 | 39.71286 | 23.24672 | 35063 ft | 512 kts | 167° |
| 2026-05-07 19:26 | 39.64668 | 23.27977 | 35071 ft | 510 kts | 167° |
| 2026-05-07 19:27 | 39.58015 | 23.31327 | 35075 ft | 512 kts | 167° |
| 2026-05-07 19:27 | 39.51368 | 23.34648 | 35068 ft | 509 kts | 167° |
| 2026-05-07 19:28 | 39.44784 | 23.37950 | 35073 ft | 511 kts | 166° |
| 2026-05-07 19:28 | 39.38117 | 23.41295 | 35079 ft | 516 kts | 166° |
| 2026-05-07 19:29 | 39.31376 | 23.44659 | 35083 ft | 510 kts | 167° |
| 2026-05-07 19:29 | 39.24737 | 23.47974 | 35089 ft | 512 kts | 167° |
| 2026-05-07 19:30 | 39.18062 | 23.51282 | 35085 ft | 513 kts | 167° |
| 2026-05-07 19:30 | 39.11350 | 23.54616 | 35083 ft | 515 kts | 166° |
| 2026-05-07 19:31 | 39.04700 | 23.57916 | 35085 ft | 512 kts | 167° |
| 2026-05-07 19:31 | 38.98039 | 23.61200 | 35089 ft | 512 kts | 166° |
| 2026-05-07 19:32 | 38.91369 | 23.64464 | 35088 ft | 512 kts | 167° |
| 2026-05-07 19:32 | 38.84817 | 23.67676 | 35093 ft | 509 kts | 167° |
| 2026-05-07 19:33 | 38.78164 | 23.70948 | 35094 ft | 513 kts | 167° |
| 2026-05-07 19:33 | 38.71519 | 23.74226 | 35094 ft | 513 kts | 167° |
| 2026-05-07 19:34 | 38.64830 | 23.77487 | 35101 ft | 512 kts | 167° |
| 2026-05-07 19:34 | 38.58205 | 23.80700 | 35104 ft | 510 kts | 167° |
| 2026-05-07 19:35 | 38.51546 | 23.83906 | 35109 ft | 512 kts | 167° |
| 2026-05-07 19:35 | 38.44896 | 23.87145 | 35107 ft | 508 kts | 167° |
| 2026-05-07 19:36 | 38.38224 | 23.90375 | 35110 ft | 511 kts | 167° |
| 2026-05-07 19:36 | 38.31595 | 23.93597 | 35119 ft | 511 kts | 167° |
| 2026-05-07 19:37 | 38.24956 | 23.96804 | 35122 ft | 511 kts | 167° |
| 2026-05-07 19:37 | 38.18284 | 23.99995 | 35130 ft | 508 kts | 167° |
| 2026-05-07 19:38 | 38.11646 | 24.03198 | 35129 ft | 515 kts | 166° |
| 2026-05-07 19:38 | 38.04943 | 24.06434 | 35134 ft | 510 kts | 166° |
| 2026-05-07 19:39 | 37.98330 | 24.09603 | 35142 ft | 512 kts | 166° |
| 2026-05-07 19:39 | 37.91616 | 24.12800 | 35144 ft | 509 kts | 167° |
| 2026-05-07 19:40 | 37.85025 | 24.15935 | 35140 ft | 509 kts | 167° |
| 2026-05-07 19:40 | 37.78373 | 24.19110 | 35141 ft | 514 kts | 166° |
| 2026-05-07 19:41 | 37.71649 | 24.22299 | 35132 ft | 513 kts | 166° |
| 2026-05-07 19:41 | 37.64955 | 24.25487 | 35127 ft | 516 kts | 166° |
| 2026-05-07 19:42 | 37.58240 | 24.28751 | 35125 ft | 515 kts | 163° |
| 2026-05-07 19:42 | 37.51744 | 24.32759 | 35127 ft | 524 kts | 155° |
| 2026-05-07 19:43 | 37.45546 | 24.37482 | 35125 ft | 523 kts | 152° |
| 2026-05-07 19:43 | 37.39378 | 24.42471 | 35124 ft | 526 kts | 150° |
| 2026-05-07 19:44 | 37.33232 | 24.47432 | 35127 ft | 525 kts | 151° |
| 2026-05-07 19:44 | 37.27013 | 24.52380 | 35127 ft | 527 kts | 151° |
| 2026-05-07 19:45 | 37.20819 | 24.57245 | 35129 ft | 524 kts | 152° |
| 2026-05-07 19:45 | 37.14618 | 24.62045 | 35129 ft | 526 kts | 151° |
| 2026-05-07 19:46 | 37.08442 | 24.66847 | 35128 ft | 526 kts | 152° |
| 2026-05-07 19:46 | 37.02199 | 24.71699 | 35131 ft | 526 kts | 152° |
| 2026-05-07 19:47 | 36.95957 | 24.76548 | 35133 ft | 527 kts | 151° |
| 2026-05-07 19:47 | 36.89732 | 24.81383 | 35133 ft | 527 kts | 152° |
| 2026-05-07 19:48 | 36.83518 | 24.86184 | 35052 ft | 525 kts | 152° |
| 2026-05-07 19:48 | 36.80413 | 24.88571 | 34531 ft | 522 kts | 152° |
| 2026-05-07 19:48 | 36.77317 | 24.90965 | 33892 ft | 519 kts | 151° |
| 2026-05-07 19:49 | 36.74284 | 24.93317 | 33468 ft | 513 kts | 152° |
| 2026-05-07 19:49 | 36.71274 | 24.95632 | 32920 ft | 510 kts | 152° |
| 2026-05-07 19:49 | 36.68253 | 24.97942 | 32220 ft | 511 kts | 152° |
| 2026-05-07 19:49 | 36.65212 | 25.00262 | 31500 ft | 512 kts | 151° |
| 2026-05-07 19:50 | 36.62163 | 25.02587 | 30854 ft | 510 kts | 150° |
| 2026-05-07 19:50 | 36.59185 | 25.04859 | 30228 ft | 508 kts | 151° |
| 2026-05-07 19:50 | 36.56165 | 25.07164 | 29602 ft | 506 kts | 150° |
| 2026-05-07 19:50 | 36.53156 | 25.09459 | 28973 ft | 504 kts | 150° |
| 2026-05-07 19:51 | 36.50205 | 25.11710 | 28360 ft | 501 kts | 150° |
| 2026-05-07 19:51 | 36.47212 | 25.13993 | 27726 ft | 499 kts | 149° |
| 2026-05-07 19:51 | 36.44320 | 25.16199 | 27097 ft | 490 kts | 150° |
| 2026-05-07 19:51 | 36.41426 | 25.18401 | 26497 ft | 479 kts | 150° |
| 2026-05-07 19:52 | 36.38606 | 25.20545 | 25891 ft | 468 kts | 150° |
| 2026-05-07 19:52 | 36.35858 | 25.22636 | 25313 ft | 458 kts | 150° |
| 2026-05-07 19:52 | 36.33194 | 25.24661 | 24745 ft | 448 kts | 149° |
| 2026-05-07 19:52 | 36.30546 | 25.26674 | 24177 ft | 438 kts | 150° |
| 2026-05-07 19:53 | 36.27995 | 25.28610 | 23623 ft | 429 kts | 150° |
| 2026-05-07 19:53 | 36.25494 | 25.30505 | 23086 ft | 420 kts | 149° |
| 2026-05-07 19:53 | 36.22998 | 25.32394 | 22541 ft | 411 kts | 150° |
| 2026-05-07 19:53 | 36.20614 | 25.34197 | 22021 ft | 402 kts | 149° |
| 2026-05-07 19:54 | 36.18257 | 25.35978 | 21510 ft | 394 kts | 149° |
| 2026-05-07 19:54 | 36.15931 | 25.37741 | 21001 ft | 386 kts | 149° |
| 2026-05-07 19:54 | 36.13664 | 25.39418 | 20508 ft | 378 kts | 152° |
| 2026-05-07 19:54 | 36.11340 | 25.40886 | 20018 ft | 369 kts | 159° |
| 2026-05-07 19:55 | 36.08952 | 25.42033 | 19523 ft | 362 kts | 163° |
| 2026-05-07 19:55 | 36.06582 | 25.42994 | 19060 ft | 360 kts | 165° |
| 2026-05-07 19:55 | 36.04179 | 25.43904 | 18558 ft | 360 kts | 166° |
| 2026-05-07 19:55 | 36.01780 | 25.44804 | 18075 ft | 360 kts | 166° |
| 2026-05-07 19:56 | 35.99403 | 25.45716 | 17598 ft | 360 kts | 165° |
| 2026-05-07 19:56 | 35.96996 | 25.46661 | 17110 ft | 359 kts | 165° |
| 2026-05-07 19:56 | 35.94645 | 25.47597 | 16632 ft | 359 kts | 164° |
| 2026-05-07 19:56 | 35.92291 | 25.48547 | 16149 ft | 358 kts | 164° |
| 2026-05-07 19:57 | 35.89926 | 25.49505 | 15667 ft | 358 kts | 164° |
| 2026-05-07 19:57 | 35.87567 | 25.50451 | 15183 ft | 357 kts | 164° |
| 2026-05-07 19:57 | 35.85214 | 25.51391 | 14696 ft | 356 kts | 163° |
| 2026-05-07 19:57 | 35.82857 | 25.52332 | 14206 ft | 355 kts | 164° |
| 2026-05-07 19:58 | 35.80518 | 25.53266 | 13731 ft | 353 kts | 164° |
| 2026-05-07 19:58 | 35.78171 | 25.54204 | 13246 ft | 352 kts | 163° |
| 2026-05-07 19:58 | 35.75865 | 25.55128 | 12765 ft | 351 kts | 163° |
| 2026-05-07 19:58 | 35.73528 | 25.56064 | 12276 ft | 350 kts | 163° |
| 2026-05-07 19:59 | 35.71207 | 25.56996 | 11823 ft | 347 kts | 162° |
| 2026-05-07 19:59 | 35.69014 | 25.58148 | 11443 ft | 344 kts | 151° |
| 2026-05-07 19:59 | 35.67015 | 25.59762 | 11025 ft | 339 kts | 143° |
| 2026-05-07 19:59 | 35.66029 | 25.60718 | 10799 ft | 334 kts | 140° |
| 2026-05-07 20:00 | 35.65239 | 25.61529 | 10626 ft | 327 kts | 139° |
| 2026-05-07 20:00 | 35.64432 | 25.62380 | 10413 ft | 322 kts | 139° |
| 2026-05-07 20:00 | 35.62751 | 25.64168 | 10193 ft | 306 kts | 139° |
| 2026-05-07 20:00 | 35.61141 | 25.65748 | 9926 ft | 295 kts | 150° |
| 2026-05-07 20:01 | 35.59227 | 25.66540 | 9526 ft | 285 kts | 180° |
| 2026-05-07 20:01 | 35.57318 | 25.66180 | 9201 ft | 274 kts | 204° |
| 2026-05-07 20:01 | 35.55666 | 25.65096 | 8820 ft | 269 kts | 219° |
| 2026-05-07 20:01 | 35.54258 | 25.63628 | 8475 ft | 265 kts | 230° |
| 2026-05-07 20:02 | 35.53302 | 25.61760 | 8146 ft | 257 kts | 254° |
| 2026-05-07 20:02 | 35.53046 | 25.59611 | 7833 ft | 251 kts | 273° |
| 2026-05-07 20:02 | 35.53073 | 25.57456 | 7413 ft | 263 kts | 269° |
| 2026-05-07 20:02 | 35.52781 | 25.55214 | 6989 ft | 271 kts | 254° |
| 2026-05-07 20:03 | 35.52058 | 25.53080 | 6623 ft | 269 kts | 244° |
| 2026-05-07 20:03 | 35.51116 | 25.51084 | 6275 ft | 267 kts | 239° |
| 2026-05-07 20:03 | 35.50120 | 25.49201 | 5934 ft | 264 kts | 238° |
| 2026-05-07 20:03 | 35.49120 | 25.47313 | 5593 ft | 261 kts | 238° |
| 2026-05-07 20:04 | 35.48157 | 25.45447 | 5259 ft | 259 kts | 239° |
| 2026-05-07 20:04 | 35.47210 | 25.43577 | 4927 ft | 257 kts | 239° |
| 2026-05-07 20:04 | 35.46278 | 25.41724 | 4596 ft | 255 kts | 239° |
| 2026-05-07 20:04 | 35.45286 | 25.39942 | 4266 ft | 252 kts | 229° |
| 2026-05-07 20:05 | 35.43911 | 25.38690 | 4067 ft | 243 kts | 199° |
| 2026-05-07 20:05 | 35.42305 | 25.38212 | 3948 ft | 231 kts | 189° |
| 2026-05-07 20:05 | 35.40727 | 25.37893 | 3742 ft | 226 kts | 189° |
| 2026-05-07 20:05 | 35.39197 | 25.37537 | 3570 ft | 218 kts | 191° |
| 2026-05-07 20:06 | 35.37740 | 25.37154 | 3305 ft | 214 kts | 191° |
| 2026-05-07 20:06 | 35.36292 | 25.36761 | 3050 ft | 209 kts | 191° |
| 2026-05-07 20:06 | 35.34891 | 25.36367 | 2845 ft | 201 kts | 195° |
| 2026-05-07 20:06 | 35.33676 | 25.35645 | 2636 ft | 190 kts | 222° |
| 2026-05-07 20:07 | 35.33054 | 25.34330 | 2464 ft | 170 kts | 257° |
| 2026-05-07 20:07 | 35.32937 | 25.32952 | 2347 ft | 158 kts | 270° |
| 2026-05-07 20:07 | 35.33017 | 25.31597 | 2238 ft | 163 kts | 275° |
| 2026-05-07 20:07 | 35.33132 | 25.30186 | 2066 ft | 166 kts | 274° |
| 2026-05-07 20:08 | 35.33232 | 25.28789 | 1968 ft | 161 kts | 273° |
| 2026-05-07 20:08 | 35.33329 | 25.27417 | 2002 ft | 163 kts | 274° |
| 2026-05-07 20:08 | 35.33427 | 25.26012 | 1994 ft | 165 kts | 274° |
| 2026-05-07 20:08 | 35.33524 | 25.24592 | 1733 ft | 179 kts | 274° |
| 2026-05-07 20:09 | 35.33648 | 25.22984 | 844 ft | 198 kts | 271° |
| 2026-05-07 20:09 | 35.33737 | 25.21390 | 498 ft | 179 kts | 274° |
| 2026-05-07 20:09 | 35.33854 | 25.19947 | 195 ft | 163 kts | 270° |
| 2026-05-07 20:10 | 35.34083 | 25.17232 | 672 ft | 169 kts | 286° |
| 2026-05-07 20:10 | 35.34949 | 25.16097 | 1065 ft | 209 kts | 337° |
| 2026-05-07 20:10 | 35.36395 | 25.15797 | 1666 ft | 218 kts | 5° |
| 2026-05-07 20:10 | 35.38050 | 25.16158 | 1588 ft | 262 kts | 18° |
| 2026-05-07 20:11 | 35.39761 | 25.16976 | 2068 ft | 274 kts | 24° |
| 2026-05-07 20:11 | 35.41496 | 25.17932 | 2004 ft | 265 kts | 24° |
| 2026-05-07 20:11 | 35.43122 | 25.18795 | 1987 ft | 249 kts | 23° |
| 2026-05-07 20:11 | 35.44620 | 25.19747 | 1981 ft | 234 kts | 35° |
| 2026-05-07 20:12 | 35.45715 | 25.21113 | 1975 ft | 220 kts | 64° |
| 2026-05-07 20:12 | 35.46081 | 25.22933 | 2024 ft | 228 kts | 90° |
| 2026-05-07 20:12 | 35.45964 | 25.24989 | 2006 ft | 252 kts | 96° |
| 2026-05-07 20:12 | 35.45795 | 25.27150 | 1969 ft | 256 kts | 95° |
| 2026-05-07 20:13 | 35.45644 | 25.29338 | 1977 ft | 255 kts | 95° |
| 2026-05-07 20:13 | 35.45499 | 25.31510 | 1985 ft | 255 kts | 95° |
| 2026-05-07 20:13 | 35.45324 | 25.33654 | 1983 ft | 255 kts | 99° |
| 2026-05-07 20:13 | 35.44787 | 25.35675 | 1992 ft | 242 kts | 121° |
| 2026-05-07 20:14 | 35.43609 | 25.37077 | 1989 ft | 235 kts | 149° |
| 2026-05-07 20:14 | 35.42081 | 25.37804 | 1996 ft | 237 kts | 165° |
| 2026-05-07 20:14 | 35.40450 | 25.37988 | 2000 ft | 236 kts | 185° |
| 2026-05-07 20:14 | 35.38826 | 25.37582 | 1998 ft | 236 kts | 193° |
| 2026-05-07 20:15 | 35.37233 | 25.37068 | 1997 ft | 235 kts | 193° |
| 2026-05-07 20:15 | 35.35675 | 25.36595 | 1989 ft | 221 kts | 194° |
| 2026-05-07 20:15 | 35.34345 | 25.35995 | 1958 ft | 188 kts | 209° |
| 2026-05-07 20:15 | 35.33458 | 25.34925 | 1995 ft | 175 kts | 240° |
| 2026-05-07 20:16 | 35.33034 | 25.33528 | 2001 ft | 174 kts | 256° |
| 2026-05-07 20:16 | 35.32948 | 25.32083 | 1994 ft | 171 kts | 274° |
| 2026-05-07 20:16 | 35.33085 | 25.30634 | 2000 ft | 170 kts | 276° |
| 2026-05-07 20:16 | 35.33204 | 25.29234 | 1999 ft | 166 kts | 274° |
| 2026-05-07 20:17 | 35.33300 | 25.27801 | 1763 ft | 169 kts | 275° |
| 2026-05-07 20:17 | 35.33411 | 25.26384 | 1424 ft | 165 kts | 276° |
| 2026-05-07 20:17 | 35.33510 | 25.25028 | 1113 ft | 158 kts | 272° |
| 2026-05-07 20:17 | 35.33573 | 25.23675 | 868 ft | 157 kts | 271° |
| 2026-05-07 20:18 | 35.33668 | 25.22334 | 694 ft | 160 kts | 273° |
| 2026-05-07 20:18 | 35.33773 | 25.20956 | 448 ft | 163 kts | 271° |
| 2026-05-07 20:18 | 35.33870 | 25.19586 | 185 ft | 159 kts | 272° |
| 2026-05-07 20:18 | 35.33954 | 25.18266 | 102 ft | 138 kts | 275° |
| 2026-05-07 20:19 | 35.34011 | 25.17495 | 98 ft | 51 kts | 274° |
| 2026-05-07 20:19 | 35.34010 | 25.17159 | 94 ft | 33 kts | 251° |
| 2026-05-07 20:19 | 35.33976 | 25.17068 | 95 ft | 6 kts | 244° |
| 2026-05-07 20:19 | 35.33963 | 25.17028 | 95 ft | 4 kts | 250° |
| 2026-05-07 20:20 | 35.33949 | 25.16958 | 95 ft | 13 kts | 268° |
| 2026-05-07 20:20 | 35.33933 | 25.16871 | 94 ft | 7 kts | 204° |
| 2026-05-07 20:20 | 35.33901 | 25.16854 | 96 ft | 3 kts | 224° |
| 2026-05-07 20:20 | 35.33905 | 25.16824 | 95 ft | 6 kts | 315° |
| 2026-05-07 20:21 | 35.33910 | 25.16818 | 95 ft | 0 kts | 313° |